Culp Creek, Oregon
Current Conditions -  °F | °C
As of 5:54 AM on Wednesday 22 Oct 2014 (Local Time) from KEUG Reporting Station
Overcast Overcast  
Wind Chill: 58°   Ceiling: 5000
Heat Index: 58°   Visibility: 10mi
Dew Point: 49°   Wind: 9mph
Humidity: 72%   Direction: 180°S
Pressure: 29.84"   Gusts: NA
Location:  43.7°N, 122.85°W
Report Text: KEUG 221254Z 18008KT 10SM BKN050 OVC065 14/09 A2984 RMK AO2 RAB1158E12B34E45 SLP104 P0000 T01440094
Loading
Personal Weather Stations






























Interactive Weather Map
Tropical Storm Tracking
New forecast layout! Learn more

10-Day Weather Forecast

Advertisements
Track Severe Weather on mobile